createdAt,value
2022-10-09T00:00:26.586Z,5.20
2022-10-09T00:01:26.577Z,3.70
2022-10-09T00:02:26.622Z,9.60
2022-10-09T00:03:26.558Z,3.90
2022-10-09T00:04:26.588Z,5.40
2022-10-09T00:05:26.572Z,4.70
2022-10-09T00:06:26.615Z,4.90
2022-10-09T00:07:26.527Z,7.10
2022-10-09T00:08:26.524Z,4.30
2022-10-09T00:09:26.572Z,4.90
2022-10-09T00:10:26.496Z,6.40
2022-10-09T00:11:27.496Z,10.10
2022-10-09T00:12:26.487Z,4.20
2022-10-09T00:13:26.479Z,11.40
2022-10-09T00:14:26.499Z,3.10
2022-10-09T00:15:26.463Z,2.90
2022-10-09T00:16:26.527Z,5.70
2022-10-09T00:17:26.479Z,3.10
2022-10-09T00:18:26.433Z,4.50
2022-10-09T00:19:26.461Z,5.50
2022-10-09T00:20:26.425Z,5.20
2022-10-09T00:21:26.414Z,5.40
2022-10-09T00:22:26.420Z,5.80
2022-10-09T00:23:26.397Z,4.10
2022-10-09T00:24:26.417Z,2.30
2022-10-09T00:25:26.421Z,5.40
2022-10-09T00:26:26.369Z,5.70
2022-10-09T00:27:26.363Z,9.00
2022-10-09T00:28:26.454Z,9.40
2022-10-09T00:29:26.380Z,8.90
2022-10-09T00:30:26.407Z,5.10
2022-10-09T00:31:26.334Z,5.90
2022-10-09T00:32:26.365Z,10.70
2022-10-09T00:33:26.311Z,3.30
2022-10-09T00:34:26.337Z,7.10
2022-10-09T00:35:26.351Z,4.80
2022-10-09T00:36:26.292Z,3.30
2022-10-09T00:37:26.288Z,7.50
2022-10-09T00:38:26.284Z,9.60
2022-10-09T00:39:26.302Z,5.00
2022-10-09T00:40:26.258Z,4.70
2022-10-09T00:41:26.256Z,6.30
2022-10-09T00:42:26.243Z,3.20
2022-10-09T00:43:26.237Z,5.40
2022-10-09T00:44:26.256Z,4.40
2022-10-09T00:45:26.221Z,3.00
2022-10-09T00:46:26.281Z,3.80
2022-10-09T00:47:26.198Z,5.20
2022-10-09T00:48:26.195Z,7.70
2022-10-09T00:49:26.239Z,6.90
2022-10-09T00:50:26.209Z,9.10
2022-10-09T00:51:26.195Z,5.90
2022-10-09T00:52:26.147Z,3.40
2022-10-09T00:53:26.172Z,5.00
2022-10-09T00:54:26.167Z,4.30
2022-10-09T00:55:26.126Z,2.90
2022-10-09T00:56:26.163Z,10.80
2022-10-09T00:57:26.150Z,3.90
2022-10-09T00:58:26.106Z,4.00
2022-10-09T00:59:26.124Z,7.40
2022-10-09T01:00:26.084Z,4.20
2022-10-09T01:01:26.134Z,6.00
2022-10-09T01:02:26.117Z,9.10
2022-10-09T01:03:26.063Z,7.20
2022-10-09T01:04:26.077Z,4.50
2022-10-09T01:05:26.152Z,5.20
2022-10-09T01:06:26.037Z,4.70
2022-10-09T01:07:26.030Z,10.20
2022-10-09T01:08:26.015Z,6.50
2022-10-09T01:09:26.032Z,2.30
2022-10-09T01:10:25.996Z,4.20
2022-10-09T01:11:25.991Z,7.60
2022-10-09T01:12:25.975Z,5.80
2022-10-09T01:13:25.966Z,5.30
2022-10-09T01:14:25.989Z,4.00
2022-10-09T01:15:26.066Z,8.00
2022-10-09T01:16:25.980Z,8.20
2022-10-09T01:17:25.936Z,2.70
2022-10-09T01:18:25.931Z,2.50
2022-10-09T01:19:25.947Z,3.90
2022-10-09T01:20:25.915Z,2.80
2022-10-09T01:21:25.907Z,6.30
2022-10-09T01:22:25.896Z,4.30
2022-10-09T01:23:25.890Z,6.30
2022-10-09T01:24:25.909Z,8.10
2022-10-09T01:25:25.868Z,5.10
2022-10-09T01:26:25.886Z,4.20
2022-10-09T01:27:25.856Z,6.40
2022-10-09T01:28:25.960Z,10.20
2022-10-09T01:29:25.873Z,2.30
2022-10-09T01:30:25.828Z,6.00
2022-10-09T01:31:25.849Z,5.10
2022-10-09T01:32:25.816Z,5.70
2022-10-09T01:33:25.803Z,2.40
2022-10-09T01:34:25.835Z,1.70
2022-10-09T01:35:25.819Z,7.00
2022-10-09T01:36:25.773Z,6.20
2022-10-09T01:37:25.764Z,7.80
2022-10-09T01:38:25.760Z,6.00
2022-10-09T01:39:25.745Z,5.80
2022-10-09T01:40:25.773Z,3.60
2022-10-09T01:41:25.732Z,3.20
2022-10-09T01:42:25.723Z,8.50
2022-10-09T01:43:25.714Z,2.60
2022-10-09T01:44:25.709Z,8.80
2022-10-09T01:45:25.740Z,11.50
2022-10-09T01:46:25.716Z,6.70
2022-10-09T01:47:25.682Z,5.30
2022-10-09T01:48:25.674Z,4.30
2022-10-09T01:49:25.670Z,6.30
2022-10-09T01:50:25.697Z,3.50
2022-10-09T01:51:25.652Z,5.00
2022-10-09T01:52:25.650Z,6.50
2022-10-09T01:53:25.633Z,7.10
2022-10-09T01:54:25.628Z,7.10
2022-10-09T01:55:25.680Z,3.80
2022-10-09T01:56:25.610Z,3.00
2022-10-09T01:57:25.602Z,5.50
2022-10-09T01:58:25.592Z,4.50
2022-10-09T01:59:25.591Z,3.80
2022-10-09T02:00:25.607Z,3.50
2022-10-09T02:01:25.591Z,2.40
2022-10-09T02:02:25.610Z,2.90
2022-10-09T02:03:25.554Z,3.20
2022-10-09T02:04:25.546Z,3.60
2022-10-09T02:05:25.568Z,3.70
2022-10-09T02:06:25.533Z,2.20
2022-10-09T02:07:25.519Z,4.60
2022-10-09T02:08:25.574Z,8.80
2022-10-09T02:09:25.502Z,5.70
2022-10-09T02:10:25.526Z,15.00
2022-10-09T02:11:25.491Z,23.40
2022-10-09T02:12:25.478Z,9.40
2022-10-09T02:13:25.465Z,6.50
2022-10-09T02:14:25.466Z,4.90
2022-10-09T02:15:25.479Z,11.40
2022-10-09T02:16:25.448Z,7.40
2022-10-09T02:17:25.443Z,4.70
2022-10-09T02:18:25.427Z,8.50
2022-10-09T02:19:25.418Z,3.20
2022-10-09T02:20:25.437Z,2.80
2022-10-09T02:21:25.411Z,4.00
2022-10-09T02:22:25.418Z,2.50
2022-10-09T02:23:25.383Z,5.70
2022-10-09T02:24:25.371Z,6.20
2022-10-09T02:25:25.401Z,7.00
2022-10-09T02:26:25.363Z,2.70
2022-10-09T02:27:25.392Z,6.90
2022-10-09T02:28:25.437Z,8.80
2022-10-09T02:29:25.331Z,2.90
2022-10-09T02:30:25.361Z,8.40
2022-10-09T02:31:25.358Z,13.00
2022-10-09T02:32:25.312Z,27.30
2022-10-09T02:33:25.306Z,23.40
2022-10-09T02:34:25.293Z,34.40
2022-10-09T02:35:25.382Z,14.00
2022-10-09T02:36:25.270Z,26.70
2022-10-09T02:37:25.298Z,32.50
2022-10-09T02:38:25.305Z,53.20
2022-10-09T02:39:25.250Z,29.50
2022-10-09T02:40:25.331Z,48.50
2022-10-09T02:41:25.234Z,34.40
2022-10-09T02:42:25.226Z,29.50
2022-10-09T02:43:25.218Z,38.50
2022-10-09T02:44:25.210Z,38.10
2022-10-09T02:45:25.198Z,54.30
2022-10-09T02:46:25.258Z,89.90
2022-10-09T02:47:25.179Z,53.30
2022-10-09T02:48:25.173Z,53.10
2022-10-09T02:49:25.164Z,42.40
2022-10-09T02:50:25.153Z,26.10
2022-10-09T02:51:25.178Z,21.20
2022-10-09T02:52:25.141Z,24.30
2022-10-09T02:53:25.127Z,18.40
2022-10-09T02:54:25.127Z,8.30
2022-10-09T02:55:25.113Z,12.00
2022-10-09T02:56:25.134Z,21.80
2022-10-09T02:57:25.102Z,28.60
2022-10-09T02:58:25.091Z,11.30
2022-10-09T02:59:25.088Z,16.80
2022-10-09T03:00:25.078Z,23.40
2022-10-09T03:01:25.135Z,12.20
2022-10-09T03:02:25.188Z,25.50
2022-10-09T03:03:26.053Z,22.60
2022-10-09T03:04:25.041Z,15.70
2022-10-09T03:05:25.035Z,23.50
2022-10-09T03:06:25.058Z,14.80
2022-10-09T03:07:25.039Z,30.20
2022-10-09T03:08:25.011Z,15.90
2022-10-09T03:09:25.029Z,20.10
2022-10-09T03:10:24.986Z,14.40
2022-10-09T03:11:25.019Z,13.20
2022-10-09T03:12:24.977Z,31.50
2022-10-09T03:13:25.000Z,38.50
2022-10-09T03:14:42.139Z,25.20
2022-10-09T03:15:25.946Z,42.20
2022-10-09T03:16:25.075Z,42.60
2022-10-09T03:17:24.944Z,22.20
2022-10-09T03:18:24.935Z,9.90
2022-10-09T03:19:24.917Z,19.60
2022-10-09T03:20:24.910Z,12.60
2022-10-09T03:21:24.927Z,4.80
2022-10-09T03:22:24.910Z,22.30
2022-10-09T03:23:24.889Z,10.20
2022-10-09T03:24:24.872Z,8.30
2022-10-09T03:25:24.869Z,12.00
2022-10-09T03:26:24.905Z,36.00
2022-10-09T03:27:24.839Z,15.00
2022-10-09T03:28:24.938Z,17.90
2022-10-09T03:29:24.823Z,4.90
2022-10-09T03:30:24.819Z,4.40
2022-10-09T03:31:50.667Z,2.20
2022-10-09T03:32:26.829Z,2.90
2022-10-09T03:33:24.791Z,5.20
2022-10-09T03:34:24.787Z,9.10
2022-10-09T03:35:24.774Z,28.00
2022-10-09T03:36:25.011Z,19.30
2022-10-09T03:37:24.862Z,14.50
2022-10-09T03:38:24.752Z,25.10
2022-10-09T03:40:05.040Z,14.10
2022-10-09T03:40:24.735Z,17.30
2022-10-09T03:41:24.761Z,14.30
2022-10-09T03:42:24.724Z,10.40
2022-10-09T03:43:24.709Z,61.90
2022-10-09T03:44:24.702Z,28.30
2022-10-09T03:45:24.700Z,31.10
2022-10-09T03:46:24.760Z,33.30
2022-10-09T03:47:24.686Z,53.10
2022-10-09T03:48:24.658Z,31.40
2022-10-09T03:49:25.664Z,37.50
2022-10-09T03:50:24.655Z,48.80
2022-10-09T03:51:24.671Z,18.20
2022-10-09T03:52:24.633Z,49.60
2022-10-09T03:53:24.626Z,32.10
2022-10-09T03:54:24.620Z,18.80
2022-10-09T03:55:24.636Z,24.20
2022-10-09T03:56:24.635Z,26.00
2022-10-09T03:57:24.590Z,46.00
2022-10-09T03:58:24.589Z,32.50
2022-10-09T03:59:24.579Z,11.40
2022-10-09T04:00:24.573Z,10.80
2022-10-09T04:01:24.639Z,13.80
2022-10-09T04:02:24.563Z,11.60
2022-10-09T04:03:24.599Z,13.30
2022-10-09T04:04:24.550Z,12.10
2022-10-09T04:05:24.535Z,24.00
2022-10-09T04:06:24.566Z,15.50
2022-10-09T04:07:24.512Z,21.50
2022-10-09T04:08:24.503Z,9.50
2022-10-09T04:09:24.496Z,29.50
2022-10-09T04:10:24.473Z,7.60
2022-10-09T04:11:24.476Z,9.20
2022-10-09T04:12:24.529Z,12.70
2022-10-09T04:13:24.455Z,12.10
2022-10-09T04:14:24.467Z,16.40
2022-10-09T04:15:24.439Z,15.40
2022-10-09T04:16:24.461Z,12.90
2022-10-09T04:17:24.463Z,12.60
2022-10-09T04:18:24.421Z,9.70
2022-10-09T04:19:24.405Z,2.50
2022-10-09T04:20:24.408Z,9.20
2022-10-09T04:21:24.391Z,18.00
2022-10-09T04:22:24.411Z,9.90
2022-10-09T04:23:24.378Z,8.30
2022-10-09T04:24:24.361Z,27.10
2022-10-09T04:25:24.362Z,22.50
2022-10-09T04:26:24.343Z,6.20
2022-10-09T04:27:24.402Z,12.60
2022-10-09T04:28:24.384Z,12.90
2022-10-09T04:29:24.314Z,10.60
2022-10-09T04:30:24.323Z,15.90
2022-10-09T04:31:24.336Z,16.40
2022-10-09T04:32:24.437Z,0.90
2022-10-09T04:33:24.291Z,34.50
2022-10-09T04:34:24.282Z,8.70
2022-10-09T04:35:24.281Z,2.60
2022-10-09T04:36:24.266Z,15.90
2022-10-09T04:37:24.286Z,12.90
2022-10-09T04:38:24.260Z,7.00
2022-10-09T04:39:24.246Z,17.60
2022-10-09T04:40:30.990Z,9.80
2022-10-09T04:41:24.231Z,20.90
2022-10-09T04:42:24.242Z,11.10
2022-10-09T04:43:24.203Z,16.90
2022-10-09T04:44:25.931Z,33.10
2022-10-09T04:45:24.210Z,19.00
2022-10-09T04:46:24.177Z,13.30
2022-10-09T04:47:24.201Z,11.40
2022-10-09T04:48:24.175Z,25.40
2022-10-09T04:49:24.153Z,12.60
2022-10-09T04:50:24.147Z,11.30
2022-10-09T04:51:24.133Z,11.50
2022-10-09T04:52:24.158Z,24.40
2022-10-09T04:53:24.125Z,12.80
2022-10-09T04:54:24.119Z,14.70
2022-10-09T04:55:24.105Z,21.00
2022-10-09T04:56:24.099Z,10.60
2022-10-09T04:57:24.121Z,15.70
2022-10-09T04:58:24.075Z,9.80
2022-10-09T04:59:24.068Z,16.00
2022-10-09T05:00:24.077Z,2.00
2022-10-09T05:01:24.093Z,19.10
2022-10-09T05:02:24.145Z,27.90
2022-10-09T05:03:24.053Z,12.50
2022-10-09T05:04:24.028Z,29.70
2022-10-09T05:05:24.032Z,30.30
2022-10-09T05:06:24.015Z,25.10
2022-10-09T05:07:24.037Z,72.40
2022-10-09T05:08:23.995Z,20.30
2022-10-09T05:09:24.000Z,22.90
2022-10-09T05:10:23.983Z,13.40
2022-10-09T05:11:23.978Z,12.70
2022-10-09T05:12:24.005Z,32.20
2022-10-09T05:13:23.955Z,18.00
2022-10-09T05:14:23.942Z,34.90
2022-10-09T05:15:23.938Z,37.40
2022-10-09T05:16:23.967Z,63.40
2022-10-09T05:17:24.033Z,42.20
2022-10-09T05:18:23.921Z,35.50
2022-10-09T05:19:23.914Z,8.20
2022-10-09T05:20:23.898Z,21.20
2022-10-09T05:21:23.900Z,19.40
2022-10-09T05:22:23.916Z,7.40
2022-10-09T05:23:23.878Z,4.80
2022-10-09T05:24:23.868Z,14.70
2022-10-09T05:25:23.861Z,14.90
2022-10-09T05:26:23.850Z,21.10
2022-10-09T05:27:23.877Z,17.70
2022-10-09T05:28:23.904Z,5.20
2022-10-09T05:29:23.839Z,12.80
2022-10-09T05:30:23.815Z,2.30
2022-10-09T05:31:23.852Z,1.70
2022-10-09T05:32:23.791Z,4.90
2022-10-09T05:33:23.831Z,8.00
2022-10-09T05:34:23.790Z,24.80
2022-10-09T05:35:23.773Z,12.10
2022-10-09T05:36:23.785Z,13.10
2022-10-09T05:37:23.759Z,15.10
2022-10-09T05:38:37.128Z,7.40
2022-10-09T05:39:23.753Z,11.70
2022-10-09T05:40:28.405Z,3.50
2022-10-09T05:41:25.733Z,6.60
2022-10-09T05:42:23.709Z,9.30
2022-10-09T05:43:24.740Z,6.60
2022-10-09T05:44:23.696Z,22.40
2022-10-09T05:45:23.704Z,24.90
2022-10-09T05:46:23.677Z,7.00
2022-10-09T05:47:23.668Z,12.10
2022-10-09T05:48:23.693Z,7.00
2022-10-09T05:49:23.656Z,11.60
2022-10-09T05:50:23.642Z,18.00
2022-10-09T05:51:23.632Z,4.40
2022-10-09T05:52:23.625Z,24.30
2022-10-09T05:53:23.708Z,23.30
2022-10-09T05:54:23.615Z,47.60
2022-10-09T05:55:23.604Z,23.30
2022-10-09T05:56:23.589Z,19.20
2022-10-09T05:57:23.585Z,29.20
2022-10-09T05:58:23.609Z,45.40
2022-10-09T05:59:23.569Z,23.10
2022-10-09T06:00:23.556Z,29.40
2022-10-09T06:01:23.621Z,4.70
2022-10-09T06:02:23.577Z,9.60
2022-10-09T06:03:23.557Z,10.90
2022-10-09T06:04:23.521Z,18.70
2022-10-09T06:05:23.519Z,21.30
2022-10-09T06:06:23.508Z,6.90
2022-10-09T06:07:23.504Z,6.30
2022-10-09T06:08:23.526Z,13.60
2022-10-09T06:09:23.622Z,37.80
2022-10-09T06:10:23.479Z,6.90
2022-10-09T06:11:23.476Z,15.80
2022-10-09T06:12:23.463Z,7.50
2022-10-09T06:13:23.482Z,7.50
2022-10-09T06:14:23.442Z,5.00
2022-10-09T06:15:23.436Z,11.80
2022-10-09T06:16:23.453Z,12.80
2022-10-09T06:17:23.431Z,7.30
2022-10-09T06:18:23.439Z,1.90
2022-10-09T06:19:23.431Z,12.10
2022-10-09T06:20:23.385Z,2.00
2022-10-09T06:21:23.377Z,1.40
2022-10-09T06:22:24.385Z,1.00
2022-10-09T06:23:23.396Z,1.90
2022-10-09T06:24:28.143Z,2.50
2022-10-09T06:25:25.359Z,9.40
2022-10-09T06:26:23.343Z,1.00
2022-10-09T06:27:23.337Z,5.10
2022-10-09T06:28:23.423Z,9.50
2022-10-09T06:29:23.318Z,5.90
2022-10-09T06:30:23.311Z,7.40
2022-10-09T06:31:23.355Z,9.70
2022-10-09T06:32:23.292Z,2.90
2022-10-09T06:33:23.308Z,16.60
2022-10-09T06:34:23.280Z,5.50
2022-10-09T06:35:23.265Z,1.60
2022-10-09T06:36:23.254Z,10.10
2022-10-09T06:37:23.247Z,5.20
2022-10-09T06:38:23.267Z,7.40
2022-10-09T06:39:23.238Z,11.20
2022-10-09T06:40:23.231Z,1.60
2022-10-09T06:41:23.212Z,5.30
2022-10-09T06:42:23.210Z,13.60
2022-10-09T06:43:23.233Z,1.40
2022-10-09T06:44:23.188Z,0.80
2022-10-09T06:45:23.192Z,0.60
2022-10-09T06:46:23.209Z,18.90
2022-10-09T06:47:23.164Z,12.80
2022-10-09T06:48:23.191Z,8.60
2022-10-09T06:49:23.151Z,8.70
2022-10-09T06:50:23.135Z,4.50
2022-10-09T06:51:23.123Z,1.80
2022-10-09T06:52:30.274Z,2.00
2022-10-09T06:53:24.138Z,2.70
2022-10-09T06:54:23.103Z,1.70
2022-10-09T06:55:27.854Z,6.20
2022-10-09T06:56:25.090Z,3.40
2022-10-09T06:57:23.083Z,2.00
2022-10-09T06:58:23.099Z,1.90
2022-10-09T06:59:23.062Z,2.80
2022-10-09T07:00:23.054Z,0.70
2022-10-09T07:01:23.079Z,2.20
2022-10-09T07:02:23.070Z,2.90
2022-10-09T07:03:23.033Z,43.80
2022-10-09T07:04:23.041Z,25.50
2022-10-09T07:05:23.008Z,1.70
2022-10-09T07:06:22.995Z,9.10
2022-10-09T07:07:22.992Z,4.90
2022-10-09T07:08:22.980Z,0.90
2022-10-09T07:09:23.008Z,0.90
2022-10-09T07:10:25.302Z,1.10
2022-10-09T07:11:23.951Z,1.00
2022-10-09T07:12:22.944Z,3.70
2022-10-09T07:13:22.937Z,2.60
2022-10-09T07:14:22.953Z,4.60
2022-10-09T07:15:22.921Z,4.60
2022-10-09T07:16:22.953Z,3.60
2022-10-09T07:17:22.905Z,4.30
2022-10-09T07:18:22.924Z,5.50
2022-10-09T07:19:22.884Z,5.40
2022-10-09T07:20:22.866Z,1.30
2022-10-09T07:21:23.903Z,9.80
2022-10-09T07:22:26.840Z,3.20
2022-10-09T07:23:23.883Z,9.40
2022-10-09T07:24:22.853Z,7.90
2022-10-09T07:25:22.844Z,2.60
2022-10-09T07:26:22.835Z,1.60
2022-10-09T07:27:22.824Z,2.10
2022-10-09T07:28:22.913Z,2.40
2022-10-09T07:29:22.817Z,3.50
2022-10-09T07:30:22.786Z,0.30
2022-10-09T07:31:22.830Z,2.60
2022-10-09T07:32:22.780Z,6.30
2022-10-09T07:33:22.796Z,2.80
2022-10-09T07:34:22.775Z,13.10
2022-10-09T07:35:22.749Z,20.00
2022-10-09T07:36:22.748Z,13.60
2022-10-09T07:37:22.734Z,2.30
2022-10-09T07:38:22.756Z,9.30
2022-10-09T07:39:22.718Z,17.00
2022-10-09T07:40:22.702Z,2.90
2022-10-09T07:41:22.704Z,1.80
2022-10-09T07:42:22.682Z,1.50
2022-10-09T07:43:22.722Z,2.50
2022-10-09T07:44:22.676Z,5.80
2022-10-09T07:45:22.663Z,4.70
2022-10-09T07:46:22.682Z,1.10
2022-10-09T07:47:23.646Z,3.50
2022-10-09T07:48:22.643Z,6.70
2022-10-09T07:49:22.684Z,11.40
2022-10-09T07:50:22.620Z,23.00
2022-10-09T07:51:22.614Z,15.10
2022-10-09T07:52:25.549Z,0.70
2022-10-09T07:53:22.593Z,2.00
2022-10-09T07:54:22.615Z,1.60
2022-10-09T07:55:22.575Z,0.70
2022-10-09T07:56:22.613Z,1.30
2022-10-09T07:57:22.563Z,8.90
2022-10-09T07:58:22.557Z,16.80
2022-10-09T07:59:22.572Z,15.40
2022-10-09T08:00:22.541Z,14.00
2022-10-09T08:01:22.582Z,4.60
2022-10-09T08:02:22.609Z,14.20
2022-10-09T08:03:22.516Z,1.10
2022-10-09T08:04:22.546Z,4.90
2022-10-09T08:05:22.501Z,0.40
2022-10-09T08:06:22.499Z,1.70
2022-10-09T08:07:22.482Z,1.80
2022-10-09T08:08:22.494Z,1.50
2022-10-09T08:09:22.513Z,1.70
2022-10-09T08:10:22.463Z,3.10
2022-10-09T08:11:22.442Z,0.80
2022-10-09T08:12:22.436Z,2.90
2022-10-09T08:13:22.432Z,0.80
2022-10-09T08:14:22.453Z,1.50
2022-10-09T08:15:22.415Z,0.90
2022-10-09T08:16:22.433Z,2.50
2022-10-09T08:17:22.391Z,0.60
2022-10-09T08:18:22.384Z,6.40
2022-10-09T08:19:22.403Z,4.60
2022-10-09T08:20:22.367Z,3.20
2022-10-09T08:21:22.362Z,0.50
2022-10-09T08:22:22.350Z,5.50
2022-10-09T08:23:22.349Z,0.50
2022-10-09T08:24:22.360Z,2.30
2022-10-09T08:25:22.330Z,27.30
2022-10-09T08:26:22.320Z,10.20
2022-10-09T08:27:22.320Z,20.20
2022-10-09T08:28:22.372Z,8.70
2022-10-09T08:29:22.291Z,0.40
2022-10-09T08:30:22.281Z,1.50
2022-10-09T08:31:22.354Z,4.70
2022-10-09T08:32:22.302Z,2.10
2022-10-09T08:33:22.287Z,0.70
2022-10-09T08:34:22.250Z,2.70
2022-10-09T08:35:22.242Z,0.90
2022-10-09T08:36:22.228Z,1.10
2022-10-09T08:37:22.223Z,0.40
2022-10-09T08:38:45.639Z,0.80
2022-10-09T08:39:24.239Z,1.50
2022-10-09T08:40:22.206Z,0.10
2022-10-09T08:41:22.185Z,1.10
2022-10-09T08:42:22.183Z,0.80
2022-10-09T08:43:22.190Z,3.20
2022-10-09T08:44:22.194Z,4.50
2022-10-09T08:45:22.157Z,0.30
2022-10-09T08:46:22.192Z,2.50
2022-10-09T08:47:22.138Z,7.60
2022-10-09T08:48:22.130Z,2.80
2022-10-09T08:49:22.152Z,1.30
2022-10-09T08:50:22.158Z,2.40
2022-10-09T08:51:22.111Z,0.80
2022-10-09T08:52:22.096Z,1.50
2022-10-09T08:53:22.089Z,0.40
2022-10-09T08:54:22.131Z,4.20
2022-10-09T08:55:22.069Z,1.50
2022-10-09T08:56:22.065Z,2.70
2022-10-09T08:57:22.053Z,1.70
2022-10-09T08:58:22.045Z,2.10
2022-10-09T08:59:22.109Z,2.10
2022-10-09T09:00:22.096Z,2.50
2022-10-09T09:01:22.058Z,3.70
2022-10-09T09:02:22.108Z,2.10
2022-10-09T09:03:22.017Z,1.70
2022-10-09T09:04:22.026Z,0.90
2022-10-09T09:05:21.992Z,1.50
2022-10-09T09:06:21.986Z,1.60
2022-10-09T09:07:21.973Z,3.30
2022-10-09T09:08:21.965Z,2.10
2022-10-09T09:09:21.986Z,3.90
2022-10-09T09:10:22.004Z,1.50
2022-10-09T09:11:22.064Z,2.10
2022-10-09T09:12:21.928Z,3.20
2022-10-09T09:13:21.928Z,1.10
2022-10-09T09:14:21.947Z,5.50
2022-10-09T09:15:21.910Z,0.50
2022-10-09T09:16:21.930Z,1.30
2022-10-09T09:17:21.904Z,2.00
2022-10-09T09:18:21.893Z,1.00
2022-10-09T09:19:21.900Z,1.90
2022-10-09T09:20:21.897Z,1.20
2022-10-09T09:21:21.863Z,0.90
2022-10-09T09:22:21.849Z,2.00
2022-10-09T09:23:28.788Z,6.60
2022-10-09T09:24:21.866Z,9.20
2022-10-09T09:25:21.827Z,3.90
2022-10-09T09:26:21.819Z,1.80
2022-10-09T09:27:21.809Z,6.20
2022-10-09T09:28:21.863Z,2.40
2022-10-09T09:29:21.833Z,1.80
2022-10-09T09:30:21.823Z,1.30
2022-10-09T09:31:21.853Z,1.60
2022-10-09T09:32:21.817Z,2.30
2022-10-09T09:33:21.757Z,2.70
2022-10-09T09:34:21.791Z,3.10
2022-10-09T09:35:21.741Z,2.90
2022-10-09T09:36:21.737Z,2.00
2022-10-09T09:37:21.720Z,1.20
2022-10-09T09:38:21.722Z,3.70
2022-10-09T09:40:36.206Z,2.20
2022-10-09T09:41:23.691Z,2.40
2022-10-09T09:42:21.687Z,1.80
2022-10-09T09:43:21.676Z,2.70
2022-10-09T09:44:21.697Z,1.60
2022-10-09T09:45:21.658Z,2.60
2022-10-09T09:46:21.709Z,3.40
2022-10-09T09:47:21.643Z,2.80
2022-10-09T09:48:21.640Z,1.60
2022-10-09T09:49:21.685Z,2.30
2022-10-09T09:50:45.720Z,1.60
2022-10-09T09:51:28.440Z,1.60
2022-10-09T09:52:23.596Z,1.70
2022-10-09T09:53:21.601Z,2.30
2022-10-09T09:54:21.594Z,1.90
2022-10-09T09:55:21.623Z,2.90
2022-10-09T09:56:21.575Z,2.60
2022-10-09T09:57:22.192Z,3.20
2022-10-09T09:58:22.564Z,2.60
2022-10-09T09:59:21.559Z,1.50
2022-10-09T10:00:21.574Z,2.70
2022-10-09T10:01:21.620Z,1.60
2022-10-09T10:02:21.611Z,1.80
2022-10-09T10:03:22.527Z,2.50
2022-10-09T10:04:21.509Z,1.80
2022-10-09T10:05:21.534Z,1.60
2022-10-09T10:06:21.496Z,2.20
2022-10-09T10:07:21.490Z,6.10
2022-10-09T10:08:21.481Z,3.50
2022-10-09T10:09:21.480Z,2.00
2022-10-09T10:10:25.323Z,1.40
2022-10-09T10:11:22.469Z,2.10
2022-10-09T10:12:21.455Z,2.10
2022-10-09T10:13:21.456Z,2.70
2022-10-09T10:14:21.437Z,3.40
2022-10-09T10:15:21.457Z,3.90
2022-10-09T10:16:21.461Z,2.20
2022-10-09T10:17:21.413Z,3.40
2022-10-09T10:18:21.410Z,3.00
2022-10-09T10:19:21.402Z,3.40
2022-10-09T10:20:21.420Z,2.80
2022-10-09T10:21:21.391Z,1.90
2022-10-09T10:22:21.377Z,1.40
2022-10-09T10:23:21.368Z,2.60
2022-10-09T10:24:21.366Z,2.30
2022-10-09T10:25:21.382Z,1.80
2022-10-09T10:26:21.352Z,2.00
2022-10-09T10:27:21.342Z,2.50
2022-10-09T10:28:21.370Z,2.30
2022-10-09T10:29:21.325Z,1.80
2022-10-09T10:30:21.332Z,4.30
2022-10-09T10:31:22.352Z,2.00
2022-10-09T10:32:21.303Z,2.30
2022-10-09T10:33:21.295Z,1.40
2022-10-09T10:34:21.286Z,1.60
2022-10-09T10:35:21.310Z,2.20
2022-10-09T10:36:21.278Z,3.10
2022-10-09T10:37:21.272Z,1.50
2022-10-09T10:38:21.284Z,2.80
2022-10-09T10:39:21.256Z,1.60
2022-10-09T10:40:21.280Z,1.50
2022-10-09T10:41:21.250Z,1.60
2022-10-09T10:42:21.228Z,2.10
2022-10-09T10:43:21.229Z,4.50
2022-10-09T10:44:21.218Z,2.40
2022-10-09T10:45:21.239Z,3.80
2022-10-09T10:46:21.254Z,2.20
2022-10-09T10:47:21.200Z,2.00
2022-10-09T10:48:21.201Z,2.80
2022-10-09T10:49:21.191Z,3.10
2022-10-09T10:50:21.222Z,2.70
2022-10-09T10:51:21.186Z,5.20
2022-10-09T10:52:21.166Z,5.10
2022-10-09T10:53:21.163Z,3.70
2022-10-09T10:54:21.155Z,4.00
2022-10-09T10:55:21.182Z,4.50
2022-10-09T10:56:21.159Z,2.20
2022-10-09T10:57:21.145Z,2.80
2022-10-09T10:59:22.131Z,2.30
2022-10-09T11:00:21.154Z,3.20
2022-10-09T11:01:21.179Z,3.60
2022-10-09T11:02:21.124Z,4.50
2022-10-09T11:03:21.163Z,2.50
2022-10-09T11:04:21.095Z,1.30
2022-10-09T11:05:21.108Z,6.80
2022-10-09T11:06:21.077Z,3.10
2022-10-09T11:07:21.070Z,3.40
2022-10-09T11:08:21.063Z,4.30
2022-10-09T11:09:21.062Z,3.20
2022-10-09T11:10:21.080Z,2.80
2022-10-09T11:11:21.036Z,6.50
2022-10-09T11:12:43.395Z,2.70
2022-10-09T11:13:23.027Z,2.90
2022-10-09T11:14:21.025Z,3.50
2022-10-09T11:15:21.055Z,2.80
2022-10-09T11:16:21.040Z,4.90
2022-10-09T11:17:21.007Z,2.70
2022-10-09T11:18:21.006Z,4.30
2022-10-09T11:19:20.984Z,2.00
2022-10-09T11:20:21.012Z,2.10
2022-10-09T11:21:20.978Z,4.10
2022-10-09T11:22:20.972Z,5.30
2022-10-09T11:23:20.970Z,4.60
2022-10-09T11:24:20.958Z,3.90
2022-10-09T11:25:20.986Z,3.40
2022-10-09T11:26:20.938Z,4.20
2022-10-09T11:27:20.941Z,3.20
2022-10-09T11:28:20.985Z,3.40
2022-10-09T11:29:20.925Z,3.20
2022-10-09T11:30:20.952Z,4.70
2022-10-09T11:31:20.936Z,4.50
2022-10-09T11:32:20.898Z,2.80
2022-10-09T11:33:20.906Z,4.10
2022-10-09T11:34:20.887Z,5.30
2022-10-09T11:35:20.906Z,3.60
2022-10-09T11:36:20.878Z,4.20
2022-10-09T11:37:20.864Z,2.50
2022-10-09T11:38:20.859Z,2.70
2022-10-09T11:39:20.860Z,4.20
2022-10-09T11:40:20.875Z,2.70
2022-10-09T11:41:20.836Z,2.30
2022-10-09T11:42:20.832Z,6.00
2022-10-09T11:43:20.823Z,3.50
2022-10-09T11:44:20.824Z,2.30
2022-10-09T11:45:20.854Z,4.10
2022-10-09T11:46:20.897Z,3.30
2022-10-09T11:47:20.800Z,4.40
2022-10-09T11:48:20.795Z,4.20
2022-10-09T11:49:20.789Z,2.00
2022-10-09T11:50:20.820Z,3.60
2022-10-09T11:51:20.770Z,3.70
2022-10-09T11:52:20.762Z,2.50
2022-10-09T11:53:20.759Z,4.20
2022-10-09T11:54:20.758Z,2.50
2022-10-09T11:55:20.743Z,3.70
2022-10-09T11:56:20.761Z,2.30
2022-10-09T11:57:20.727Z,3.00
2022-10-09T11:58:20.722Z,2.00
2022-10-09T11:59:20.719Z,2.90
2022-10-09T12:00:20.708Z,4.80
2022-10-09T12:01:20.791Z,2.20
2022-10-09T12:02:20.718Z,4.20
2022-10-09T12:03:20.689Z,3.50
2022-10-09T12:04:27.802Z,4.40
2022-10-09T12:05:22.674Z,2.00
2022-10-09T12:06:20.692Z,1.70
2022-10-09T12:07:20.659Z,2.60
2022-10-09T12:08:20.726Z,1.60
2022-10-09T12:09:20.645Z,4.70
2022-10-09T12:10:20.648Z,5.50
2022-10-09T12:11:20.667Z,1.50
2022-10-09T12:12:20.629Z,4.30
2022-10-09T12:13:20.623Z,2.60
2022-10-09T12:14:20.608Z,4.70
2022-10-09T12:15:20.611Z,3.20
2022-10-09T12:16:20.719Z,5.30
2022-10-09T12:17:20.596Z,3.80
2022-10-09T12:18:20.588Z,3.50
2022-10-09T12:19:20.579Z,3.00
2022-10-09T12:20:20.570Z,2.80
2022-10-09T12:21:20.590Z,4.40
2022-10-09T12:22:20.572Z,3.40
2022-10-09T12:23:28.332Z,4.00
2022-10-09T12:24:22.542Z,3.20
2022-10-09T12:25:20.535Z,4.80
2022-10-09T12:26:20.558Z,3.10
2022-10-09T12:27:20.518Z,1.70
2022-10-09T12:28:20.548Z,3.00
2022-10-09T12:29:20.505Z,4.40
2022-10-09T12:30:20.493Z,3.50
2022-10-09T12:31:20.552Z,3.00
2022-10-09T12:32:20.479Z,3.60
2022-10-09T12:33:20.478Z,4.50
2022-10-09T12:34:20.460Z,5.20
2022-10-09T12:35:20.480Z,5.10
2022-10-09T12:36:20.480Z,3.20
2022-10-09T12:37:20.449Z,4.90
2022-10-09T12:38:20.432Z,3.40
2022-10-09T12:39:20.437Z,2.80
2022-10-09T12:40:20.423Z,2.10
2022-10-09T12:41:20.511Z,4.40
2022-10-09T12:42:21.463Z,2.80
2022-10-09T12:43:20.404Z,3.20
2022-10-09T12:44:20.394Z,2.30
2022-10-09T12:45:20.381Z,3.40
2022-10-09T12:46:20.428Z,6.00
2022-10-09T12:47:20.396Z,2.30
2022-10-09T12:48:21.362Z,2.90
2022-10-09T12:49:20.359Z,3.40
2022-10-09T12:50:20.343Z,3.80
2022-10-09T12:51:20.381Z,3.60
2022-10-09T12:52:20.324Z,4.30
2022-10-09T12:53:20.326Z,4.10
2022-10-09T12:54:20.318Z,4.40
2022-10-09T12:55:20.308Z,1.60
2022-10-09T12:56:20.331Z,3.20
2022-10-09T12:57:23.986Z,2.60
2022-10-09T12:58:22.279Z,2.50
2022-10-09T12:59:20.303Z,1.10
2022-10-09T13:00:20.267Z,1.70
2022-10-09T13:01:20.380Z,2.90
2022-10-09T13:02:20.382Z,1.10
2022-10-09T13:03:20.246Z,1.80
2022-10-09T13:04:20.251Z,1.60
2022-10-09T13:05:20.228Z,1.80
2022-10-09T13:06:20.220Z,2.10
2022-10-09T13:07:20.246Z,2.10
2022-10-09T13:08:20.202Z,1.50
2022-10-09T13:09:20.204Z,1.50
2022-10-09T13:10:20.195Z,3.50
2022-10-09T13:11:20.178Z,3.40
2022-10-09T13:12:20.271Z,1.80
2022-10-09T13:13:20.169Z,3.60